Terminal Aerodrome Forecast
Issued by NWS Jacksonville, FL

Home | Current Version | Previous Version | Text Only | Print | Product List | Glossary On
Versions: 1 2 3 4 5 6 7 8 9 10 11 12 13 14 15 16
000
FTUS42 KJAX 210800 AAA
TAFJAX
TAF AMD
KJAX 210820Z 2108/2206 00000KT 5SM BR BKN250
      TEMPO 2108/2112 1SM BR
     FM211500 31006KT P6SM SCT250
     FM220000 VRB03KT P6SM SKC=

USA.gov is the U.S. government's official web portal to all federal, state and local government web resources and services.